createdAt,value
2023-03-24T00:46:30.550Z,0.80
2023-03-24T00:49:18.081Z,0.90
2023-03-24T00:52:10.522Z,0.85
2023-03-24T00:54:58.240Z,0.70
2023-03-24T00:57:50.596Z,0.80
2023-03-24T01:46:29.837Z,0.70
2023-03-24T01:49:16.155Z,0.90
2023-03-24T01:52:04.682Z,0.65
2023-03-24T01:54:57.375Z,0.60
2023-03-24T01:57:47.684Z,0.70
2023-03-24T02:46:15.041Z,0.60
2023-03-24T02:49:51.666Z,0.80
2023-03-24T02:52:56.087Z,0.70
2023-03-24T02:55:51.624Z,0.60
2023-03-24T02:58:43.042Z,0.90
2023-03-24T03:47:13.408Z,1.08
2023-03-24T03:50:03.518Z,0.57
2023-03-24T03:52:50.397Z,0.70
2023-03-24T03:55:36.207Z,0.55
2023-03-24T03:58:23.442Z,0.57
2023-03-24T04:47:12.493Z,0.70
2023-03-24T04:50:11.379Z,0.80
2023-03-24T04:52:57.818Z,0.63
2023-03-24T04:55:49.224Z,0.60
2023-03-24T04:58:38.682Z,0.60
2023-03-24T05:47:22.106Z,0.77
2023-03-24T05:50:08.080Z,0.60
2023-03-24T05:52:53.508Z,0.65
2023-03-24T05:55:58.802Z,0.70
2023-03-24T05:59:11.610Z,0.80
2023-03-24T06:02:26.620Z,0.60
2023-03-24T06:05:20.626Z,0.80
2023-03-24T06:08:06.396Z,0.60
2023-03-24T06:11:00.461Z,0.70
2023-03-24T06:13:46.070Z,0.70
2023-03-24T06:16:34.036Z,0.60
2023-03-24T06:19:22.633Z,0.70
2023-03-24T06:22:31.870Z,0.75
2023-03-24T06:25:20.705Z,0.80
2023-03-24T06:28:34.449Z,0.68
2023-03-24T06:31:25.233Z,0.70
2023-03-24T06:34:12.105Z,0.88
2023-03-24T06:36:58.012Z,1.00
2023-03-24T06:39:43.275Z,0.80
2023-03-24T06:42:30.702Z,0.88
2023-03-24T06:45:16.622Z,0.80
2023-03-24T06:48:04.048Z,0.73
2023-03-24T06:50:49.344Z,0.80
2023-03-24T06:53:35.941Z,0.80
2023-03-24T06:56:21.630Z,0.60
2023-03-24T06:59:17.702Z,0.80
2023-03-24T07:02:03.256Z,0.90
2023-03-24T07:04:55.085Z,1.20
2023-03-24T07:10:50.710Z,0.90
2023-03-24T07:13:36.815Z,1.10
2023-03-24T07:16:23.660Z,0.80
2023-03-24T07:19:18.595Z,1.02
2023-03-24T07:22:09.813Z,0.80
2023-03-24T07:25:15.242Z,1.05
2023-03-24T07:28:08.454Z,1.23
2023-03-24T07:30:55.457Z,1.08
2023-03-24T07:33:42.127Z,1.00
2023-03-24T07:36:27.561Z,1.20
2023-03-24T07:39:13.992Z,1.17
2023-03-24T07:41:59.229Z,0.98
2023-03-24T07:45:12.211Z,1.08
2023-03-24T07:48:01.850Z,1.10
2023-03-24T07:50:49.701Z,0.80
2023-03-24T07:53:58.738Z,0.70
2023-03-24T07:56:52.744Z,0.90
2023-03-24T07:59:38.099Z,1.67
2023-03-24T08:02:34.204Z,1.55
2023-03-24T08:05:39.215Z,1.70
2023-03-24T08:08:44.654Z,1.40
2023-03-24T08:11:30.158Z,1.63
2023-03-24T08:14:15.706Z,1.60
2023-03-24T08:17:01.364Z,1.80
2023-03-24T08:20:00.017Z,1.47
2023-03-24T08:22:50.125Z,1.80
2023-03-24T08:25:36.549Z,1.75
2023-03-24T08:28:21.987Z,1.63
2023-03-24T08:31:08.621Z,1.90
2023-03-24T08:33:55.200Z,1.73
2023-03-24T08:36:42.045Z,1.60
2023-03-24T08:42:49.984Z,1.90
2023-03-24T08:45:39.881Z,1.98
2023-03-24T08:48:26.287Z,1.70
2023-03-24T08:51:15.856Z,1.95
2023-03-24T08:54:01.597Z,1.65
2023-03-24T09:00:04.718Z,1.60
2023-03-24T09:03:05.482Z,1.80
2023-03-24T09:05:58.220Z,1.60
2023-03-24T09:08:49.798Z,2.17
2023-03-24T09:11:39.083Z,1.95
2023-03-24T09:14:26.574Z,1.88
2023-03-24T09:17:15.701Z,1.60
2023-03-24T09:20:14.115Z,1.80
2023-03-24T09:23:03.212Z,1.58
2023-03-24T09:25:53.799Z,1.30
2023-03-24T09:28:41.456Z,1.60
2023-03-24T09:31:30.649Z,1.60
2023-03-24T09:34:16.215Z,1.60
2023-03-24T09:37:01.990Z,1.42
2023-03-24T09:39:47.955Z,1.55
2023-03-24T09:42:38.345Z,1.60
2023-03-24T09:45:27.030Z,1.60
2023-03-24T09:48:19.196Z,1.67
2023-03-24T09:51:07.039Z,1.55
2023-03-24T09:53:52.314Z,1.60
2023-03-24T09:56:39.647Z,1.60
2023-03-24T09:59:40.846Z,1.67
2023-03-24T10:02:30.874Z,1.63
2023-03-24T10:05:22.042Z,1.50
2023-03-24T10:08:37.598Z,1.70
2023-03-24T10:11:43.485Z,1.55
2023-03-24T10:18:12.520Z,1.60
2023-03-24T10:21:07.774Z,1.60
2023-03-24T10:24:02.416Z,1.42
2023-03-24T10:27:21.622Z,1.52
2023-03-24T10:30:16.272Z,1.43
2023-03-24T10:33:02.227Z,1.60
2023-03-24T10:36:02.027Z,1.50
2023-03-24T10:38:48.592Z,1.80
2023-03-24T10:41:37.304Z,1.50
2023-03-24T10:44:23.417Z,1.50
2023-03-24T10:47:13.533Z,1.38
2023-03-24T10:50:12.495Z,1.30
2023-03-24T10:52:59.945Z,1.30
2023-03-24T10:55:47.946Z,1.40
2023-03-24T10:58:40.258Z,1.30
2023-03-24T11:01:30.381Z,1.70
2023-03-24T11:04:19.789Z,1.50
2023-03-24T11:07:12.377Z,1.33
2023-03-24T11:10:03.006Z,1.45
2023-03-24T11:12:54.897Z,1.33
2023-03-24T11:15:53.847Z,1.50
2023-03-24T11:18:55.542Z,1.50
2023-03-24T11:21:43.167Z,1.25
2023-03-24T11:24:29.913Z,1.20
2023-03-24T11:27:16.963Z,1.13
2023-03-24T11:30:02.157Z,1.40
2023-03-24T11:32:48.494Z,1.33
2023-03-24T11:35:41.684Z,1.30
2023-03-24T11:38:41.381Z,1.48
2023-03-24T11:41:27.833Z,1.50
2023-03-24T11:44:19.062Z,1.40
2023-03-24T11:47:12.487Z,1.25
2023-03-24T11:50:11.928Z,1.50
2023-03-24T11:53:05.431Z,1.48
2023-03-24T11:56:06.401Z,1.13
2023-03-24T11:59:01.710Z,1.60
2023-03-24T12:02:12.685Z,1.60
2023-03-24T12:05:13.145Z,1.30
2023-03-24T12:08:09.027Z,1.30
2023-03-24T12:11:04.284Z,1.50
2023-03-24T12:13:51.496Z,1.40
2023-03-24T12:17:17.341Z,1.20
2023-03-24T12:20:36.791Z,1.38
2023-03-24T12:23:47.394Z,1.50
2023-03-24T12:26:34.472Z,1.40
2023-03-24T12:29:34.034Z,1.40
2023-03-24T12:32:39.499Z,1.45
2023-03-24T12:35:47.080Z,1.30
2023-03-24T12:38:50.854Z,1.27
2023-03-24T12:41:51.650Z,1.40
2023-03-24T12:45:00.086Z,1.30
2023-03-24T12:48:13.263Z,1.20
2023-03-24T12:51:07.406Z,1.50
2023-03-24T12:53:53.672Z,1.20
2023-03-24T12:56:47.320Z,1.27
2023-03-24T12:59:41.594Z,1.23
2023-03-24T13:02:38.425Z,1.20
2023-03-24T13:05:31.674Z,1.35
2023-03-24T13:08:29.572Z,1.30
2023-03-24T13:11:31.871Z,1.23
2023-03-24T13:14:26.442Z,1.30
2023-03-24T13:17:21.344Z,1.58
2023-03-24T13:20:13.462Z,1.27
2023-03-24T13:23:20.230Z,1.27
2023-03-24T13:26:31.108Z,1.40
2023-03-24T13:29:49.067Z,1.10
2023-03-24T13:32:42.957Z,1.08
2023-03-24T13:35:48.246Z,1.33
2023-03-24T13:38:42.343Z,1.55
2023-03-24T13:41:35.277Z,1.30
2023-03-24T13:44:24.365Z,1.10
2023-03-24T13:47:15.916Z,1.17
2023-03-24T13:50:04.750Z,1.00
2023-03-24T13:52:52.986Z,1.30
2023-03-24T13:55:39.628Z,1.30
2023-03-24T13:58:28.395Z,1.25
2023-03-24T14:01:31.531Z,1.50
2023-03-24T14:04:25.970Z,0.90
2023-03-24T14:07:32.458Z,1.10
2023-03-24T14:10:20.706Z,1.17
2023-03-24T14:13:12.390Z,1.10
2023-03-24T14:15:58.684Z,1.30
2023-03-24T14:18:44.286Z,1.02
2023-03-24T14:21:31.566Z,1.20
2023-03-24T14:24:24.643Z,1.00
2023-03-24T14:27:35.059Z,1.50
2023-03-24T14:30:22.152Z,1.33
2023-03-24T14:33:24.470Z,1.30
2023-03-24T14:36:14.370Z,1.25
2023-03-24T14:39:41.463Z,0.93
2023-03-24T14:42:36.172Z,1.08
2023-03-24T14:45:43.652Z,1.10
2023-03-24T14:48:33.810Z,1.10
2023-03-24T14:51:36.838Z,1.20
2023-03-24T14:54:27.405Z,1.13
2023-03-24T14:57:22.405Z,1.10
2023-03-24T15:00:30.462Z,1.30
2023-03-24T15:03:37.968Z,1.40
2023-03-24T15:06:24.006Z,1.35
2023-03-24T15:09:20.423Z,1.50
2023-03-24T15:12:11.492Z,1.15
2023-03-24T15:14:59.593Z,1.02
2023-03-24T15:17:46.980Z,1.38
2023-03-24T15:20:35.798Z,1.40
2023-03-24T15:23:28.262Z,1.30
2023-03-24T15:26:14.145Z,1.10
2023-03-24T15:29:06.249Z,1.10
2023-03-24T15:31:51.942Z,1.20
2023-03-24T15:34:40.390Z,1.30
2023-03-24T15:37:33.903Z,0.90
2023-03-24T15:40:25.960Z,1.40
2023-03-24T15:43:22.119Z,1.20
2023-03-24T15:46:22.531Z,1.27
2023-03-24T15:49:19.647Z,1.23
2023-03-24T15:52:29.060Z,1.00
2023-03-24T15:55:28.774Z,1.10
2023-03-24T15:58:27.872Z,1.20
2023-03-24T16:01:17.551Z,1.10
2023-03-24T16:04:11.874Z,1.00
2023-03-24T16:06:57.768Z,1.23
2023-03-24T16:09:44.975Z,1.50
2023-03-24T16:12:34.762Z,1.00
2023-03-24T16:15:20.446Z,1.13
2023-03-24T16:18:06.537Z,0.95
2023-03-24T16:20:52.432Z,1.10
2023-03-24T16:23:37.863Z,1.00
2023-03-24T16:26:27.426Z,1.00
2023-03-24T16:29:17.498Z,1.00
2023-03-24T16:32:03.224Z,1.13
2023-03-24T16:34:48.724Z,1.13
2023-03-24T16:37:35.154Z,1.20
2023-03-24T16:40:35.996Z,1.10
2023-03-24T16:43:22.004Z,1.00
2023-03-24T16:46:29.947Z,0.95
2023-03-24T16:49:17.987Z,1.07
2023-03-24T16:52:03.994Z,0.90
2023-03-24T16:54:50.529Z,1.00
2023-03-24T16:57:37.448Z,1.20
2023-03-24T17:00:23.830Z,1.00
2023-03-24T17:03:10.536Z,0.90
2023-03-24T17:05:57.992Z,1.00
2023-03-24T17:08:45.039Z,1.10
2023-03-24T17:11:39.583Z,1.20
2023-03-24T17:14:25.257Z,1.00
2023-03-24T17:17:11.536Z,1.37
2023-03-24T17:19:59.864Z,1.02
2023-03-24T17:22:47.840Z,1.00
2023-03-24T17:25:33.857Z,1.05
2023-03-24T17:28:19.186Z,1.00
2023-03-24T17:31:05.714Z,0.97
2023-03-24T17:33:51.022Z,1.00
2023-03-24T17:36:36.540Z,1.00
2023-03-24T17:39:22.169Z,1.40
2023-03-24T17:42:07.497Z,1.10
2023-03-24T17:44:53.437Z,0.97
2023-03-24T17:47:39.230Z,1.00
2023-03-24T17:50:25.452Z,1.10
2023-03-24T17:53:13.739Z,0.90
2023-03-24T17:56:05.536Z,0.82
2023-03-24T17:58:54.837Z,1.20
2023-03-24T18:01:40.503Z,1.10
2023-03-24T18:04:26.315Z,0.80
2023-03-24T18:07:11.723Z,0.98
2023-03-24T18:09:56.852Z,0.90
2023-03-24T18:12:43.309Z,1.33
2023-03-24T18:15:30.595Z,1.00
2023-03-24T18:18:16.208Z,1.45
2023-03-24T18:21:02.592Z,1.70
2023-03-24T18:23:48.670Z,1.52
2023-03-24T18:26:33.931Z,1.70
2023-03-24T18:29:22.084Z,1.95
2023-03-24T18:32:07.635Z,1.77
2023-03-24T18:34:53.245Z,1.80
2023-03-24T18:37:38.747Z,1.70
2023-03-24T18:40:24.247Z,2.00
2023-03-24T18:43:09.699Z,1.73
2023-03-24T18:45:55.270Z,1.92
2023-03-24T18:48:42.600Z,1.85
2023-03-24T18:51:28.290Z,2.00
2023-03-24T18:54:13.749Z,1.97
2023-03-24T18:56:59.693Z,1.50
2023-03-24T18:59:44.812Z,1.60
2023-03-24T19:02:30.508Z,1.73
2023-03-24T19:05:16.221Z,1.90
2023-03-24T19:08:06.987Z,1.70
2023-03-24T19:10:55.261Z,1.35
2023-03-24T19:13:42.009Z,1.70
2023-03-24T19:16:28.907Z,1.90
2023-03-24T19:19:19.332Z,1.80
2023-03-24T19:22:09.028Z,2.00
2023-03-24T19:24:55.681Z,1.70
2023-03-24T19:27:44.549Z,1.83
2023-03-24T19:30:30.173Z,2.38
2023-03-24T19:33:15.608Z,2.38
2023-03-24T19:36:01.222Z,2.53
2023-03-24T19:38:46.820Z,2.90
2023-03-24T19:41:32.206Z,3.10
2023-03-24T19:44:17.812Z,3.10
2023-03-24T19:47:03.515Z,2.78
2023-03-24T19:49:49.768Z,3.10
2023-03-24T19:52:35.728Z,3.55
2023-03-24T19:55:21.383Z,3.35
2023-03-24T19:58:06.937Z,3.42
2023-03-24T20:00:52.548Z,3.70
2023-03-24T20:03:37.932Z,3.53
2023-03-24T20:06:23.125Z,4.07
2023-03-24T20:09:08.615Z,3.85
2023-03-24T20:11:54.028Z,4.35
2023-03-24T20:14:39.539Z,3.72
2023-03-24T20:17:28.458Z,4.33
2023-03-24T20:20:14.716Z,3.70
2023-03-24T20:23:00.498Z,4.50
2023-03-24T20:25:45.783Z,4.03
2023-03-24T20:28:31.180Z,4.47
2023-03-24T20:31:17.409Z,3.97
2023-03-24T20:34:03.866Z,4.25
2023-03-24T20:36:49.098Z,4.35
2023-03-24T20:39:34.579Z,4.18
2023-03-24T20:42:23.398Z,4.00
2023-03-24T20:45:11.043Z,4.30
2023-03-24T20:47:56.732Z,3.85
2023-03-24T20:50:43.400Z,4.00
2023-03-24T20:53:29.790Z,3.88
2023-03-24T20:56:16.687Z,4.72
2023-03-24T20:59:06.430Z,5.70
2023-03-24T21:01:51.763Z,4.85
2023-03-24T21:04:37.269Z,5.75
2023-03-24T21:07:22.614Z,5.43
2023-03-24T21:10:08.257Z,5.68
2023-03-24T21:12:54.853Z,5.27
2023-03-24T21:15:45.774Z,4.95
2023-03-24T21:18:32.328Z,5.05
2023-03-24T21:21:17.732Z,5.70
2023-03-24T21:24:04.406Z,5.18
2023-03-24T21:26:50.861Z,5.50
2023-03-24T21:29:36.672Z,4.75
2023-03-24T21:32:21.884Z,4.90
2023-03-24T21:35:09.086Z,5.03
2023-03-24T21:37:54.661Z,4.57
2023-03-24T21:40:40.011Z,4.50
2023-03-24T21:43:27.141Z,4.90
2023-03-24T21:46:20.914Z,4.78
2023-03-24T21:49:06.305Z,4.88
2023-03-24T21:51:55.046Z,5.00
2023-03-24T21:54:40.121Z,4.93
2023-03-24T21:57:25.277Z,5.03
2023-03-24T22:00:15.627Z,4.90
2023-03-24T22:03:02.171Z,4.90
2023-03-24T22:05:47.968Z,4.80
2023-03-24T22:08:33.660Z,4.23
2023-03-24T22:11:24.921Z,4.40
2023-03-24T22:14:10.533Z,4.63
2023-03-24T22:16:55.832Z,4.15
2023-03-24T22:19:41.534Z,4.03
2023-03-24T22:22:27.055Z,4.00
2023-03-24T22:25:15.583Z,4.25
2023-03-24T22:28:00.787Z,4.03
2023-03-24T22:30:46.569Z,4.15
2023-03-24T22:33:32.089Z,4.05
2023-03-24T22:36:18.758Z,3.93
2023-03-24T22:39:04.450Z,4.05
2023-03-24T22:41:50.209Z,4.25
2023-03-24T22:44:36.008Z,4.28
2023-03-24T22:47:26.635Z,4.18
2023-03-24T22:50:12.320Z,3.67
2023-03-24T22:52:57.690Z,3.63
2023-03-24T22:55:44.628Z,4.22
2023-03-24T22:58:30.266Z,3.42
2023-03-24T23:01:16.367Z,4.13
2023-03-24T23:04:01.708Z,3.93
2023-03-24T23:06:46.962Z,3.97
2023-03-24T23:09:32.275Z,4.10
2023-03-24T23:12:18.676Z,3.80
2023-03-24T23:15:07.858Z,4.03
2023-03-24T23:17:53.252Z,3.63
2023-03-24T23:20:38.585Z,3.63
2023-03-24T23:23:23.789Z,3.40
2023-03-24T23:26:26.195Z,3.25
2023-03-24T23:29:13.948Z,3.75
2023-03-24T23:31:59.470Z,3.70
2023-03-24T23:34:48.532Z,4.05
2023-03-24T23:37:36.023Z,3.83
2023-03-24T23:40:26.691Z,3.47
2023-03-24T23:43:12.990Z,3.63
2023-03-24T23:45:58.524Z,3.53
2023-03-24T23:48:43.856Z,3.42
2023-03-24T23:51:30.988Z,3.70
2023-03-24T23:54:17.728Z,3.55
2023-03-24T23:57:03.341Z,3.30
2023-03-24T23:59:49.537Z,2.80
